createdAt,value
2019-03-12T00:02:15.473Z,100.00
2019-03-12T00:04:42.408Z,100.00
2019-03-12T00:07:09.362Z,100.00
2019-03-12T00:09:36.324Z,100.00
2019-03-12T00:12:03.385Z,100.00
2019-03-12T00:14:30.285Z,100.00
2019-03-12T00:16:57.233Z,100.00
2019-03-12T00:19:24.262Z,100.00
2019-03-12T00:21:51.225Z,100.00
2019-03-12T00:24:18.153Z,100.00
2019-03-12T00:26:45.151Z,100.00
2019-03-12T00:29:12.061Z,100.00
2019-03-12T00:31:39.007Z,100.00
2019-03-12T00:34:06.018Z,100.00
2019-03-12T00:36:32.964Z,100.00
2019-03-12T00:38:59.899Z,100.00
2019-03-12T00:41:26.897Z,100.00
2019-03-12T00:43:53.827Z,100.00
2019-03-12T00:46:20.866Z,100.00
2019-03-12T00:48:47.825Z,100.00
2019-03-12T00:51:14.775Z,100.00
2019-03-12T00:53:41.737Z,100.00
2019-03-12T00:56:08.730Z,100.00
2019-03-12T00:58:35.647Z,100.00
2019-03-12T01:01:02.733Z,100.00
2019-03-12T01:03:29.640Z,100.00
2019-03-12T01:05:56.921Z,100.00
2019-03-12T01:08:23.876Z,100.00
2019-03-12T01:10:50.798Z,100.00
2019-03-12T01:13:17.822Z,100.00
2019-03-12T01:15:44.851Z,100.00
2019-03-12T01:18:13.806Z,100.00
2019-03-12T01:20:40.627Z,100.00
2019-03-12T01:23:07.650Z,100.00
2019-03-12T01:25:34.578Z,100.00
2019-03-12T01:28:01.547Z,100.00
2019-03-12T01:30:28.523Z,100.00
2019-03-12T01:32:55.514Z,100.00
2019-03-12T01:35:22.438Z,100.00
2019-03-12T01:37:49.385Z,100.00
2019-03-12T01:40:16.393Z,100.00
2019-03-12T01:42:43.383Z,100.00
2019-03-12T01:45:11.738Z,100.00
2019-03-12T01:47:38.720Z,100.00
2019-03-12T01:50:06.253Z,100.00
2019-03-12T01:52:33.218Z,100.00
2019-03-12T01:55:00.490Z,100.00
2019-03-12T01:57:27.448Z,100.00
2019-03-12T01:59:54.359Z,100.00
2019-03-12T02:02:21.299Z,100.00
2019-03-12T02:04:48.200Z,100.00
2019-03-12T02:07:15.145Z,100.00
2019-03-12T02:09:42.070Z,100.00
2019-03-12T02:12:09.012Z,100.00
2019-03-12T02:14:36.780Z,100.00
2019-03-12T02:17:03.755Z,100.00
2019-03-12T02:19:30.667Z,100.00
2019-03-12T02:21:57.591Z,100.00
2019-03-12T02:24:24.531Z,100.00
2019-03-12T02:26:51.439Z,100.00
2019-03-12T02:29:18.393Z,100.00
2019-03-12T02:31:45.316Z,100.00
2019-03-12T02:34:12.269Z,100.00
2019-03-12T02:36:39.169Z,100.00
2019-03-12T02:39:07.354Z,100.00
2019-03-12T02:41:34.294Z,100.00
2019-03-12T02:44:01.246Z,100.00
2019-03-12T02:46:28.197Z,100.00
2019-03-12T02:48:55.144Z,100.00
2019-03-12T02:51:22.062Z,100.00
2019-03-12T02:53:48.999Z,100.00
2019-03-12T02:56:15.957Z,100.00
2019-03-12T02:58:42.893Z,100.00
2019-03-12T03:01:09.804Z,100.00
2019-03-12T03:03:36.745Z,100.00
2019-03-12T03:06:11.079Z,100.00
2019-03-12T03:08:38.012Z,100.00
2019-03-12T03:11:04.911Z,100.00
2019-03-12T03:13:31.862Z,100.00
2019-03-12T03:15:58.800Z,100.00
2019-03-12T03:18:25.757Z,100.00
2019-03-12T03:20:52.684Z,100.00
2019-03-12T03:23:19.623Z,100.00
2019-03-12T03:25:46.526Z,100.00
2019-03-12T03:28:13.476Z,100.00
2019-03-12T03:30:40.393Z,100.00
2019-03-12T03:33:07.339Z,100.00
2019-03-12T03:35:34.257Z,100.00
2019-03-12T03:38:01.205Z,100.00
2019-03-12T03:40:28.142Z,100.00
2019-03-12T03:42:55.073Z,100.00
2019-03-12T03:45:21.996Z,100.00
2019-03-12T03:47:48.909Z,100.00
2019-03-12T03:50:16.059Z,100.00
2019-03-12T03:52:42.970Z,100.00
2019-03-12T03:55:11.977Z,100.00
2019-03-12T03:57:38.901Z,100.00
2019-03-12T04:00:08.335Z,100.00
2019-03-12T04:02:35.257Z,100.00
2019-03-12T04:05:02.356Z,100.00
2019-03-12T04:07:29.304Z,100.00
2019-03-12T04:09:56.230Z,100.00
2019-03-12T04:12:23.194Z,100.00
2019-03-12T04:14:50.169Z,100.00
2019-03-12T04:17:17.095Z,100.00
2019-03-12T04:19:44.045Z,100.00
2019-03-12T04:22:10.999Z,100.00
2019-03-12T04:24:37.972Z,100.00
2019-03-12T04:27:04.916Z,100.00
2019-03-12T04:29:31.882Z,100.00
2019-03-12T04:31:58.793Z,100.00
2019-03-12T04:34:37.465Z,100.00
2019-03-12T04:37:04.377Z,100.00
2019-03-12T04:39:31.379Z,100.00
2019-03-12T04:41:58.351Z,100.00
2019-03-12T04:44:25.308Z,100.00
2019-03-12T04:46:52.254Z,100.00
2019-03-12T04:49:19.219Z,100.00
2019-03-12T04:51:46.118Z,100.00
2019-03-12T04:54:13.072Z,100.00
2019-03-12T04:56:40.093Z,100.00
2019-03-12T04:59:07.076Z,100.00
2019-03-12T05:01:33.990Z,100.00
2019-03-12T05:04:00.959Z,100.00
2019-03-12T05:06:27.883Z,100.00
2019-03-12T05:08:54.853Z,100.00
2019-03-12T05:11:21.751Z,100.00
2019-03-12T05:14:18.108Z,100.00
2019-03-12T05:16:45.034Z,100.00
2019-03-12T05:19:12.010Z,100.00
2019-03-12T05:21:38.930Z,100.00
2019-03-12T05:24:05.875Z,100.00
2019-03-12T05:26:32.792Z,100.00
2019-03-12T05:28:59.737Z,100.00
2019-03-12T05:31:26.680Z,100.00
2019-03-12T05:33:53.593Z,100.00
2019-03-12T05:36:20.535Z,100.00
2019-03-12T05:38:47.450Z,100.00
2019-03-12T05:41:14.472Z,100.00
2019-03-12T05:43:41.412Z,100.00
2019-03-12T05:46:08.387Z,100.00
2019-03-12T05:48:35.304Z,100.00
2019-03-12T05:51:02.315Z,100.00
2019-03-12T05:53:48.070Z,100.00
2019-03-12T05:56:15.151Z,100.00
2019-03-12T05:58:42.065Z,100.00
2019-03-12T06:01:09.227Z,100.00
2019-03-12T06:03:36.188Z,100.00
2019-03-12T06:06:03.109Z,100.00
2019-03-12T06:08:30.085Z,100.00
2019-03-12T06:10:57.141Z,100.00
2019-03-12T06:13:24.115Z,100.00
2019-03-12T06:16:01.909Z,100.00
2019-03-12T06:18:45.860Z,100.00
2019-03-12T06:21:13.316Z,100.00
2019-03-12T06:23:40.234Z,100.00
2019-03-12T06:26:07.195Z,100.00
2019-03-12T06:28:34.141Z,100.00
2019-03-12T06:31:16.171Z,100.00
2019-03-12T06:34:05.254Z,100.00
2019-03-12T06:36:36.525Z,100.00
2019-03-12T06:39:19.370Z,100.00
2019-03-12T06:41:53.954Z,100.00
2019-03-12T06:44:32.278Z,100.00
2019-03-12T06:47:10.055Z,100.00
2019-03-12T06:49:54.130Z,100.00
2019-03-12T06:52:40.726Z,100.00
2019-03-12T06:55:23.230Z,100.00
2019-03-12T06:58:34.214Z,100.00
2019-03-12T07:01:20.821Z,100.00
2019-03-12T07:04:10.189Z,100.00
2019-03-12T07:06:56.782Z,100.00
2019-03-12T07:09:45.012Z,100.00
2019-03-12T07:12:22.665Z,100.00
2019-03-12T07:15:05.097Z,100.00
2019-03-12T07:18:00.796Z,100.00
2019-03-12T07:20:50.296Z,100.00
2019-03-12T07:23:35.615Z,100.00
2019-03-12T07:26:21.095Z,100.00
2019-03-12T07:29:06.121Z,100.00
2019-03-12T07:31:39.365Z,100.00
2019-03-12T07:34:36.758Z,99.60
2019-03-12T07:37:20.748Z,100.00
2019-03-12T07:40:00.308Z,100.00
2019-03-12T07:42:41.803Z,100.00
2019-03-12T07:45:14.360Z,99.26
2019-03-12T07:48:00.967Z,99.82
2019-03-12T07:50:37.502Z,98.37
2019-03-12T07:53:22.809Z,98.55
2019-03-12T07:56:04.552Z,99.61
2019-03-12T07:59:09.426Z,99.61
2019-03-12T08:01:56.021Z,99.17
2019-03-12T08:04:43.418Z,99.90
2019-03-12T08:07:41.430Z,99.13
2019-03-12T08:10:26.620Z,99.38
2019-03-12T14:15:49.123Z,63.59
2019-03-12T14:18:16.052Z,62.80
2019-03-12T14:20:44.807Z,62.92
2019-03-12T14:23:14.291Z,62.32
2019-03-12T14:25:41.364Z,61.62
2019-03-12T14:28:08.308Z,60.17
2019-03-12T14:30:35.278Z,60.56
2019-03-12T14:33:02.499Z,61.59
2019-03-12T14:35:29.480Z,60.31
2019-03-12T14:37:56.488Z,60.64
2019-03-12T14:40:23.548Z,61.55
2019-03-12T14:42:50.542Z,60.71
2019-03-12T14:45:24.152Z,61.19
2019-03-12T14:47:51.121Z,59.78
2019-03-12T14:50:18.186Z,61.06
2019-03-12T14:52:47.491Z,61.39
2019-03-12T14:55:14.434Z,61.08
2019-03-12T14:57:41.415Z,61.52
2019-03-12T15:00:18.113Z,62.10
2019-03-12T15:02:45.113Z,60.79
2019-03-12T15:05:12.053Z,61.22
2019-03-12T15:07:39.027Z,62.71
2019-03-12T15:10:07.167Z,60.88
2019-03-12T15:12:34.129Z,60.19
2019-03-12T15:15:01.094Z,60.61
2019-03-12T15:17:28.085Z,60.24
2019-03-12T15:19:55.051Z,59.78
2019-03-12T15:22:22.032Z,59.54
2019-03-12T15:24:48.954Z,59.72
2019-03-12T15:27:15.920Z,59.94
2019-03-12T15:29:42.866Z,59.83
2019-03-12T15:32:09.854Z,60.97
2019-03-12T15:34:36.814Z,61.01
2019-03-12T15:37:03.777Z,61.33
2019-03-12T15:39:30.724Z,62.04
2019-03-12T15:41:57.731Z,62.51
2019-03-12T15:44:24.682Z,62.63
2019-03-12T15:46:51.682Z,62.08
2019-03-12T15:49:18.671Z,63.06
2019-03-12T15:51:45.671Z,62.36
2019-03-12T15:54:12.600Z,62.25
2019-03-12T15:56:39.579Z,61.40
2019-03-12T15:59:06.567Z,62.70
2019-03-12T16:01:33.561Z,61.66
2019-03-12T16:04:00.533Z,61.26
2019-03-12T16:06:27.527Z,62.10
2019-03-12T16:08:54.477Z,62.44
2019-03-12T16:11:21.472Z,61.50
2019-03-12T16:13:48.525Z,61.77
2019-03-12T16:16:15.507Z,61.81
2019-03-12T16:18:42.825Z,62.16
2019-03-12T16:21:09.888Z,61.50
2019-03-12T16:23:36.929Z,61.60
2019-03-12T16:26:03.893Z,61.77
2019-03-12T16:28:30.883Z,61.51
2019-03-12T16:30:57.827Z,62.90
2019-03-12T16:33:24.787Z,61.14
2019-03-12T16:35:51.790Z,63.00
2019-03-12T16:38:18.858Z,61.41
2019-03-12T16:40:45.858Z,62.37
2019-03-12T16:43:12.992Z,62.28
2019-03-12T16:45:39.949Z,61.04
2019-03-12T16:48:06.912Z,61.73
2019-03-12T16:50:33.849Z,61.60
2019-03-12T16:53:00.808Z,60.51
2019-03-12T16:55:27.831Z,60.31
2019-03-12T16:57:55.063Z,62.29
2019-03-12T17:00:22.314Z,61.89
2019-03-12T17:02:49.404Z,61.98
2019-03-12T17:05:16.535Z,61.50
2019-03-12T17:07:43.622Z,61.03
2019-03-12T17:10:10.917Z,61.53
2019-03-12T17:12:38.053Z,61.03
2019-03-12T17:15:06.304Z,61.57
2019-03-12T17:17:33.311Z,62.31
2019-03-12T17:20:01.194Z,61.60
2019-03-12T17:22:28.178Z,62.34
2019-03-12T17:24:55.121Z,62.41
2019-03-12T17:27:22.139Z,61.17
2019-03-12T17:29:49.104Z,61.39
2019-03-12T17:32:16.393Z,59.82
2019-03-12T17:34:43.347Z,61.10
2019-03-12T17:37:10.302Z,60.26
2019-03-12T17:39:37.283Z,61.04
2019-03-12T17:42:04.228Z,60.24
2019-03-12T17:44:31.192Z,60.82
2019-03-12T17:46:58.123Z,59.61
2019-03-12T17:49:25.102Z,59.55
2019-03-12T17:51:52.038Z,60.26
2019-03-12T17:54:19.364Z,59.66
2019-03-12T17:56:46.363Z,59.10
2019-03-12T17:59:13.351Z,58.90
2019-03-12T18:01:40.279Z,57.62
2019-03-12T18:04:07.241Z,58.18
2019-03-12T18:06:35.218Z,56.87
2019-03-12T18:09:04.232Z,57.75
2019-03-12T18:11:31.187Z,56.71
2019-03-12T18:13:58.155Z,55.93
2019-03-12T18:16:25.127Z,55.61
2019-03-12T18:18:52.105Z,55.32
2019-03-12T18:21:19.175Z,56.17
2019-03-12T18:23:46.151Z,55.25
2019-03-12T18:26:13.106Z,55.28
2019-03-12T18:28:40.118Z,55.24
2019-03-12T18:31:07.123Z,54.96
2019-03-12T18:33:34.169Z,55.38
2019-03-12T18:36:01.208Z,55.03
2019-03-12T18:38:28.210Z,55.36
2019-03-12T18:40:55.290Z,56.03
2019-03-12T18:43:23.076Z,54.15
2019-03-12T18:45:50.179Z,54.90
2019-03-12T18:48:17.187Z,54.17
2019-03-12T18:50:44.203Z,54.73
2019-03-12T18:53:11.155Z,54.41
2019-03-12T18:55:43.367Z,55.36
2019-03-12T18:58:10.456Z,54.91
2019-03-12T19:00:37.441Z,53.93
2019-03-12T19:03:04.432Z,54.30
2019-03-12T19:05:31.417Z,54.39
2019-03-12T19:07:58.662Z,53.94
2019-03-12T19:10:26.091Z,54.21
2019-03-12T19:12:53.263Z,53.64
2019-03-12T19:15:20.724Z,53.65
2019-03-12T19:17:48.178Z,54.10
2019-03-12T19:20:15.179Z,53.32
2019-03-12T19:22:42.159Z,53.58
2019-03-12T19:25:09.296Z,53.45
2019-03-12T19:27:36.449Z,53.19
2019-03-12T19:30:04.618Z,54.13
2019-03-12T19:32:43.815Z,53.52
2019-03-12T19:35:12.164Z,53.96
2019-03-12T19:37:39.135Z,53.86
2019-03-12T19:40:09.499Z,53.42
2019-03-12T19:42:36.462Z,53.77
2019-03-12T19:45:03.845Z,53.91
2019-03-12T19:47:30.813Z,54.07
2019-03-12T19:49:57.827Z,53.93
2019-03-12T19:52:24.911Z,53.53
2019-03-12T19:54:51.867Z,53.30
2019-03-12T19:57:18.813Z,53.38
2019-03-12T19:59:45.893Z,52.99
2019-03-12T20:02:16.346Z,53.04
2019-03-12T20:04:47.372Z,53.64
2019-03-12T20:07:12.519Z,52.98
2019-03-12T20:10:27.158Z,52.93
2019-03-12T20:13:31.288Z,52.89
2019-03-12T20:16:46.189Z,52.40
2019-03-12T20:19:54.902Z,53.21
2019-03-12T20:22:44.141Z,54.88
2019-03-12T20:25:53.442Z,54.44
2019-03-12T20:29:04.111Z,54.80
2019-03-12T20:32:16.469Z,56.60
2019-03-12T20:35:36.726Z,55.62
2019-03-12T20:38:44.799Z,57.13
2019-03-12T20:41:58.405Z,54.33
2019-03-12T20:45:02.416Z,54.52
2019-03-12T20:48:18.928Z,54.80
2019-03-12T20:51:22.539Z,54.97
2019-03-12T20:54:40.679Z,55.50
2019-03-12T20:57:57.676Z,57.74
2019-03-12T21:01:12.520Z,59.59
2019-03-12T21:04:23.169Z,61.76
2019-03-12T21:07:25.095Z,62.54
2019-03-12T21:10:38.894Z,64.30
2019-03-12T21:13:39.064Z,65.60
2019-03-12T21:16:40.254Z,65.79
2019-03-12T21:19:44.921Z,66.62
2019-03-12T21:23:12.025Z,68.06
2019-03-12T21:26:24.073Z,69.92
2019-03-12T21:29:32.047Z,71.49
2019-03-12T21:31:59.261Z,73.51
2019-03-12T21:34:26.231Z,72.61
2019-03-12T21:36:53.246Z,74.33
2019-03-12T21:39:20.258Z,74.18
2019-03-12T21:41:47.395Z,73.59
2019-03-12T21:44:14.556Z,72.78
2019-03-12T21:46:41.682Z,72.65
2019-03-12T21:49:08.679Z,72.44
2019-03-12T21:51:35.756Z,72.55
2019-03-12T21:54:03.007Z,72.26
2019-03-12T21:56:30.101Z,72.40
2019-03-12T21:58:57.014Z,71.90
2019-03-12T22:01:24.264Z,72.12
2019-03-12T22:03:51.252Z,72.76
2019-03-12T22:06:18.316Z,73.19
2019-03-12T22:08:45.346Z,74.27
2019-03-12T22:11:12.396Z,73.61
2019-03-12T22:13:39.356Z,74.40
2019-03-12T22:16:06.394Z,76.93
2019-03-12T22:18:33.402Z,79.27
2019-03-12T22:21:00.437Z,82.66
2019-03-12T22:23:32.157Z,89.67
2019-03-12T22:25:59.168Z,94.25
2019-03-12T22:28:26.128Z,99.14
2019-03-12T22:30:53.127Z,100.00
2019-03-12T22:33:20.150Z,100.00
2019-03-12T22:35:47.148Z,100.00
2019-03-12T22:38:14.150Z,100.00
2019-03-12T22:40:41.117Z,100.00
2019-03-12T22:43:08.105Z,100.00
2019-03-12T22:45:35.272Z,100.00
2019-03-12T22:48:02.242Z,100.00
2019-03-12T22:50:29.247Z,100.00
2019-03-12T22:52:56.337Z,100.00
2019-03-12T22:55:23.336Z,100.00
2019-03-12T22:57:50.310Z,100.00
2019-03-12T23:00:17.272Z,100.00
2019-03-12T23:02:44.264Z,100.00
2019-03-12T23:05:11.456Z,100.00
2019-03-12T23:07:38.434Z,100.00
2019-03-12T23:10:05.618Z,100.00
2019-03-12T23:12:32.602Z,100.00
2019-03-12T23:14:59.528Z,100.00
2019-03-12T23:17:26.495Z,100.00
2019-03-12T23:19:53.564Z,100.00
2019-03-12T23:22:20.548Z,100.00
2019-03-12T23:24:47.518Z,100.00
2019-03-12T23:27:14.545Z,100.00
2019-03-12T23:29:41.728Z,100.00
2019-03-12T23:32:08.686Z,100.00
2019-03-12T23:34:35.808Z,100.00
2019-03-12T23:37:02.877Z,100.00
2019-03-12T23:39:29.853Z,100.00
2019-03-12T23:41:56.835Z,100.00
2019-03-12T23:44:23.783Z,100.00
2019-03-12T23:46:50.757Z,100.00
2019-03-12T23:49:18.113Z,100.00
2019-03-12T23:51:45.147Z,100.00
2019-03-12T23:54:12.213Z,100.00
2019-03-12T23:56:39.293Z,100.00
2019-03-12T23:59:06.292Z,100.00
